Morgan, Texas
Current Conditions -  °F | °C
As of 11:15 AM on Thursday 18 Dec 2014 (Local Time) from KCPT Reporting Station
Haze Haze  
Wind Chill: 48°   Ceiling: 400
Heat Index: 48°   Visibility: 3mi
Dew Point: 48°   Wind: 0mph
Humidity: 100%   Direction: NA
Pressure: 30.18"   Gusts: NA
Location:  32.02°N, 97.61°W
Report Text: KCPT 181715Z AUTO 00000KT 3SM BR OVC004 09/09 A3018 RMK AO2
Loading
Personal Weather Stations






























Interactive Weather Map New forecast layout! Learn more

10-Day Weather Forecast

Advertisements
Track Severe Weather on mobile